Battersby, United Kingdom
Current Conditions -  °F | °C
As of 12:50 PM on Wednesday 26 Nov 2014 (Local Time) from EGNV Reporting Station
Scattered Clouds Scattered Clouds  
Wind Chill: 44°   Ceiling: Unl
Heat Index: 46°   Visibility: 6mi
Dew Point: 43°   Wind: 5mph
Humidity: 87%   Direction: 40°NE
Pressure: 29.91"   Gusts: NA
Location:  54.47°N, 1.19°W
Report Text: EGNV 261250Z 04004KT 9000 SCT023 08/06 Q1013
Loading
Personal Weather Stations






























Interactive Weather Map New forecast layout! Learn more

10-Day Weather Forecast

Advertisements
Track Severe Weather on mobile